Waltham, Minnesota
Current Conditions -  °F | °C
As of 10:15 AM on Thursday 23 Oct 2014 (Local Time) from KAUM Reporting Station
Haze Haze  
Wind Chill: 46°   Ceiling: 400
Heat Index: 48°   Visibility: 1.2mi
Dew Point: 48°   Wind: 5mph
Humidity: 100%   Direction: 200°SSW
Pressure: 30.04"   Gusts: NA
Location:  43.82°N, 92.88°W
Report Text: KAUM 231515Z AUTO 20004KT 1 1/4SM BR OVC004 09/09 A3004 RMK AO2
Loading
Personal Weather Stations






























Interactive Weather Map
Tropical Storm Tracking
New forecast layout! Learn more

10-Day Weather Forecast

Advertisements
Track Severe Weather on mobile